Tonganoxie, Kansas
Current Conditions -  °F | °C
As of 10:52 PM on Friday 19 Dec 2014 (Local Time) from KLWC Reporting Station
Overcast Overcast  
Wind Chill: 26°   Ceiling: 1400
Heat Index: 33°   Visibility: 10mi
Dew Point: 28°   Wind: 8mph
Humidity: 82%   Direction: 220°SW
Pressure: 30.22"   Gusts: NA
Location:  39.11°N, 95.09°W
Report Text: KLWC 200452Z AUTO 22007KT 10SM OVC014 01/M02 A3022 RMK AO2 SLP240 T00061022
Loading
Personal Weather Stations






























Interactive Weather Map New forecast layout! Learn more

10-Day Weather Forecast

Advertisements
Track Severe Weather on mobile